sensor_id;sensor_type;location;lat;lon;timestamp;temperature;humidity
2012;DHT22;1009;51.436;6.972;2024-01-15T00:00:52;1.30;99.90
2012;DHT22;1009;51.436;6.972;2024-01-15T00:03:19;1.30;99.90
2012;DHT22;1009;51.436;6.972;2024-01-15T00:05:46;1.30;99.90
2012;DHT22;1009;51.436;6.972;2024-01-15T00:08:13;1.30;99.90
2012;DHT22;1009;51.436;6.972;2024-01-15T00:10:41;1.40;99.90
2012;DHT22;1009;51.436;6.972;2024-01-15T00:13:08;1.30;99.90
2012;DHT22;1009;51.436;6.972;2024-01-15T00:15:35;1.30;99.90
2012;DHT22;1009;51.436;6.972;2024-01-15T00:18:01;1.30;99.90
2012;DHT22;1009;51.436;6.972;2024-01-15T00:20:28;1.40;99.90
2012;DHT22;1009;51.436;6.972;2024-01-15T00:22:55;1.30;99.90
2012;DHT22;1009;51.436;6.972;2024-01-15T00:25:22;1.30;99.90
2012;DHT22;1009;51.436;6.972;2024-01-15T00:27:50;1.30;99.90
2012;DHT22;1009;51.436;6.972;2024-01-15T00:30:17;1.30;99.90
2012;DHT22;1009;51.436;6.972;2024-01-15T00:32:44;1.30;99.90
2012;DHT22;1009;51.436;6.972;2024-01-15T00:35:10;1.30;99.90
2012;DHT22;1009;51.436;6.972;2024-01-15T00:37:37;1.30;99.90
2012;DHT22;1009;51.436;6.972;2024-01-15T00:40:07;1.30;99.90
2012;DHT22;1009;51.436;6.972;2024-01-15T00:42:34;1.30;99.90
2012;DHT22;1009;51.436;6.972;2024-01-15T00:45:02;1.40;99.90
2012;DHT22;1009;51.436;6.972;2024-01-15T00:47:30;1.40;99.90
2012;DHT22;1009;51.436;6.972;2024-01-15T00:49:58;1.40;99.90
2012;DHT22;1009;51.436;6.972;2024-01-15T00:52:25;1.40;99.90
2012;DHT22;1009;51.436;6.972;2024-01-15T00:54:52;1.40;99.90
2012;DHT22;1009;51.436;6.972;2024-01-15T00:57:19;1.40;99.90
2012;DHT22;1009;51.436;6.972;2024-01-15T00:59:47;1.40;99.90
2012;DHT22;1009;51.436;6.972;2024-01-15T01:02:15;1.40;99.90
2012;DHT22;1009;51.436;6.972;2024-01-15T01:04:41;1.50;99.90
2012;DHT22;1009;51.436;6.972;2024-01-15T01:07:11;1.40;99.90
2012;DHT22;1009;51.436;6.972;2024-01-15T01:09:40;1.40;99.90
2012;DHT22;1009;51.436;6.972;2024-01-15T01:12:07;1.40;99.90
2012;DHT22;1009;51.436;6.972;2024-01-15T01:14:34;1.40;99.90
2012;DHT22;1009;51.436;6.972;2024-01-15T01:17:01;1.50;99.90
2012;DHT22;1009;51.436;6.972;2024-01-15T01:19:30;1.50;99.90
2012;DHT22;1009;51.436;6.972;2024-01-15T01:21:56;1.50;99.90
2012;DHT22;1009;51.436;6.972;2024-01-15T01:24:23;1.40;99.90
2012;DHT22;1009;51.436;6.972;2024-01-15T01:26:50;1.40;99.90
2012;DHT22;1009;51.436;6.972;2024-01-15T01:29:17;1.40;99.90
2012;DHT22;1009;51.436;6.972;2024-01-15T01:31:44;1.50;99.90
2012;DHT22;1009;51.436;6.972;2024-01-15T01:34:13;1.40;99.90
2012;DHT22;1009;51.436;6.972;2024-01-15T01:36:42;1.50;99.90
2012;DHT22;1009;51.436;6.972;2024-01-15T01:39:09;1.50;99.90
2012;DHT22;1009;51.436;6.972;2024-01-15T01:41:36;1.50;99.90
2012;DHT22;1009;51.436;6.972;2024-01-15T01:44:03;1.50;99.90
2012;DHT22;1009;51.436;6.972;2024-01-15T01:46:30;1.50;99.90
2012;DHT22;1009;51.436;6.972;2024-01-15T01:48:58;1.50;99.90
2012;DHT22;1009;51.436;6.972;2024-01-15T01:51:31;1.40;99.90
2012;DHT22;1009;51.436;6.972;2024-01-15T01:54:00;1.40;99.90
2012;DHT22;1009;51.436;6.972;2024-01-15T01:56:27;1.50;99.90
2012;DHT22;1009;51.436;6.972;2024-01-15T01:58:54;1.50;99.90
2012;DHT22;1009;51.436;6.972;2024-01-15T02:01:23;1.50;99.90
2012;DHT22;1009;51.436;6.972;2024-01-15T02:03:51;1.50;99.90
2012;DHT22;1009;51.436;6.972;2024-01-15T02:06:18;1.40;99.90
2012;DHT22;1009;51.436;6.972;2024-01-15T02:08:48;1.40;99.90
2012;DHT22;1009;51.436;6.972;2024-01-15T02:11:18;1.40;99.90
2012;DHT22;1009;51.436;6.972;2024-01-15T02:13:48;1.40;99.90
2012;DHT22;1009;51.436;6.972;2024-01-15T02:16:15;1.50;99.90
2012;DHT22;1009;51.436;6.972;2024-01-15T02:18:45;1.50;99.90
2012;DHT22;1009;51.436;6.972;2024-01-15T02:21:12;1.40;99.90
2012;DHT22;1009;51.436;6.972;2024-01-15T02:23:40;1.50;99.90
2012;DHT22;1009;51.436;6.972;2024-01-15T02:26:08;1.50;99.90
2012;DHT22;1009;51.436;6.972;2024-01-15T02:28:34;1.60;99.90
2012;DHT22;1009;51.436;6.972;2024-01-15T02:31:02;1.50;99.90
2012;DHT22;1009;51.436;6.972;2024-01-15T02:33:28;1.50;99.90
2012;DHT22;1009;51.436;6.972;2024-01-15T02:35:55;1.40;99.90
2012;DHT22;1009;51.436;6.972;2024-01-15T02:38:22;1.50;99.90
2012;DHT22;1009;51.436;6.972;2024-01-15T02:40:50;1.50;99.90
2012;DHT22;1009;51.436;6.972;2024-01-15T02:43:17;1.50;99.90
2012;DHT22;1009;51.436;6.972;2024-01-15T02:45:45;1.50;99.90
2012;DHT22;1009;51.436;6.972;2024-01-15T02:48:12;1.60;99.90
2012;DHT22;1009;51.436;6.972;2024-01-15T02:50:39;1.50;99.90
2012;DHT22;1009;51.436;6.972;2024-01-15T02:53:05;1.60;99.90
2012;DHT22;1009;51.436;6.972;2024-01-15T02:55:32;1.50;99.90
2012;DHT22;1009;51.436;6.972;2024-01-15T02:58:00;1.50;99.90
2012;DHT22;1009;51.436;6.972;2024-01-15T03:00:27;1.50;99.90
2012;DHT22;1009;51.436;6.972;2024-01-15T03:02:56;1.50;99.90
2012;DHT22;1009;51.436;6.972;2024-01-15T03:05:22;1.50;99.90
2012;DHT22;1009;51.436;6.972;2024-01-15T03:07:49;1.50;99.90
2012;DHT22;1009;51.436;6.972;2024-01-15T03:10:16;1.50;99.90
2012;DHT22;1009;51.436;6.972;2024-01-15T03:12:43;1.50;99.90
2012;DHT22;1009;51.436;6.972;2024-01-15T03:15:11;1.50;99.90
2012;DHT22;1009;51.436;6.972;2024-01-15T03:17:38;1.50;99.90
2012;DHT22;1009;51.436;6.972;2024-01-15T03:20:06;1.50;99.90
2012;DHT22;1009;51.436;6.972;2024-01-15T03:22:33;1.50;99.90
2012;DHT22;1009;51.436;6.972;2024-01-15T03:24:59;1.50;99.90
2012;DHT22;1009;51.436;6.972;2024-01-15T03:27:26;1.50;99.90
2012;DHT22;1009;51.436;6.972;2024-01-15T03:29:53;1.50;99.90
2012;DHT22;1009;51.436;6.972;2024-01-15T03:32:21;1.50;99.90
2012;DHT22;1009;51.436;6.972;2024-01-15T03:34:48;1.40;99.90
2012;DHT22;1009;51.436;6.972;2024-01-15T03:37:15;1.50;99.90
2012;DHT22;1009;51.436;6.972;2024-01-15T03:39:42;1.50;99.90
2012;DHT22;1009;51.436;6.972;2024-01-15T03:42:09;1.50;99.90
2012;DHT22;1009;51.436;6.972;2024-01-15T03:44:36;1.50;99.90
2012;DHT22;1009;51.436;6.972;2024-01-15T03:47:04;1.50;99.90
2012;DHT22;1009;51.436;6.972;2024-01-15T03:50:03;1.50;99.90
2012;DHT22;1009;51.436;6.972;2024-01-15T03:52:35;1.50;99.90
2012;DHT22;1009;51.436;6.972;2024-01-15T03:55:04;1.50;99.90
2012;DHT22;1009;51.436;6.972;2024-01-15T03:57:31;1.60;99.90
2012;DHT22;1009;51.436;6.972;2024-01-15T03:59:58;1.60;99.90
2012;DHT22;1009;51.436;6.972;2024-01-15T04:02:24;1.50;99.90
2012;DHT22;1009;51.436;6.972;2024-01-15T04:04:51;1.60;99.90
2012;DHT22;1009;51.436;6.972;2024-01-15T04:07:19;1.60;99.90
2012;DHT22;1009;51.436;6.972;2024-01-15T04:09:46;1.60;99.90
2012;DHT22;1009;51.436;6.972;2024-01-15T04:12:12;1.60;99.90
2012;DHT22;1009;51.436;6.972;2024-01-15T04:14:39;1.60;99.90
2012;DHT22;1009;51.436;6.972;2024-01-15T04:17:06;1.70;99.90
2012;DHT22;1009;51.436;6.972;2024-01-15T04:19:33;1.70;99.90
2012;DHT22;1009;51.436;6.972;2024-01-15T04:22:00;1.60;99.90
2012;DHT22;1009;51.436;6.972;2024-01-15T04:24:28;1.60;99.90
2012;DHT22;1009;51.436;6.972;2024-01-15T04:26:55;1.70;99.90
2012;DHT22;1009;51.436;6.972;2024-01-15T04:29:22;1.70;99.90
2012;DHT22;1009;51.436;6.972;2024-01-15T04:31:49;1.60;99.90
2012;DHT22;1009;51.436;6.972;2024-01-15T04:34:15;1.60;99.90
2012;DHT22;1009;51.436;6.972;2024-01-15T04:36:42;1.60;99.90
2012;DHT22;1009;51.436;6.972;2024-01-15T04:39:09;1.70;99.90
2012;DHT22;1009;51.436;6.972;2024-01-15T04:41:38;1.70;99.90
2012;DHT22;1009;51.436;6.972;2024-01-15T04:44:05;1.70;99.90
2012;DHT22;1009;51.436;6.972;2024-01-15T04:46:31;1.70;99.90
2012;DHT22;1009;51.436;6.972;2024-01-15T04:48:58;1.60;99.90
2012;DHT22;1009;51.436;6.972;2024-01-15T04:51:25;1.70;99.90
2012;DHT22;1009;51.436;6.972;2024-01-15T04:53:51;1.70;99.90
2012;DHT22;1009;51.436;6.972;2024-01-15T04:56:18;1.70;99.90
2012;DHT22;1009;51.436;6.972;2024-01-15T04:58:46;1.70;99.90
2012;DHT22;1009;51.436;6.972;2024-01-15T05:01:15;1.70;99.90
2012;DHT22;1009;51.436;6.972;2024-01-15T05:03:42;1.70;99.90
2012;DHT22;1009;51.436;6.972;2024-01-15T05:06:09;1.60;99.90
2012;DHT22;1009;51.436;6.972;2024-01-15T05:08:36;1.70;99.90
2012;DHT22;1009;51.436;6.972;2024-01-15T05:11:03;1.70;99.90
2012;DHT22;1009;51.436;6.972;2024-01-15T05:13:29;1.70;99.90
2012;DHT22;1009;51.436;6.972;2024-01-15T05:15:57;1.70;99.90
2012;DHT22;1009;51.436;6.972;2024-01-15T05:18:24;1.70;99.90
2012;DHT22;1009;51.436;6.972;2024-01-15T05:20:51;1.60;99.90
2012;DHT22;1009;51.436;6.972;2024-01-15T05:23:18;1.70;99.90
2012;DHT22;1009;51.436;6.972;2024-01-15T05:25:45;1.60;99.90
2012;DHT22;1009;51.436;6.972;2024-01-15T05:28:14;1.60;99.90
2012;DHT22;1009;51.436;6.972;2024-01-15T05:30:41;1.60;99.90
2012;DHT22;1009;51.436;6.972;2024-01-15T05:33:09;1.60;99.90
2012;DHT22;1009;51.436;6.972;2024-01-15T05:35:39;1.60;99.90
2012;DHT22;1009;51.436;6.972;2024-01-15T05:38:06;1.60;99.90
2012;DHT22;1009;51.436;6.972;2024-01-15T05:40:32;1.60;99.90
2012;DHT22;1009;51.436;6.972;2024-01-15T05:42:59;1.60;99.90
2012;DHT22;1009;51.436;6.972;2024-01-15T05:45:26;1.60;99.90
2012;DHT22;1009;51.436;6.972;2024-01-15T05:47:53;1.60;99.90
2012;DHT22;1009;51.436;6.972;2024-01-15T05:50:21;1.60;99.90
2012;DHT22;1009;51.436;6.972;2024-01-15T05:52:48;1.60;99.90
2012;DHT22;1009;51.436;6.972;2024-01-15T05:55:15;1.70;99.90
2012;DHT22;1009;51.436;6.972;2024-01-15T05:57:43;1.70;99.90
2012;DHT22;1009;51.436;6.972;2024-01-15T06:00:11;1.80;99.90
2012;DHT22;1009;51.436;6.972;2024-01-15T06:02:38;1.80;99.90
2012;DHT22;1009;51.436;6.972;2024-01-15T06:05:05;1.80;99.90
2012;DHT22;1009;51.436;6.972;2024-01-15T06:07:34;1.80;99.90
2012;DHT22;1009;51.436;6.972;2024-01-15T06:10:01;1.80;99.90
2012;DHT22;1009;51.436;6.972;2024-01-15T06:12:28;1.80;99.90
2012;DHT22;1009;51.436;6.972;2024-01-15T06:14:55;1.70;99.90
2012;DHT22;1009;51.436;6.972;2024-01-15T06:17:22;1.70;99.90
2012;DHT22;1009;51.436;6.972;2024-01-15T06:19:49;1.70;99.90
2012;DHT22;1009;51.436;6.972;2024-01-15T06:22:15;1.80;99.90
2012;DHT22;1009;51.436;6.972;2024-01-15T06:24:43;1.70;99.90
2012;DHT22;1009;51.436;6.972;2024-01-15T06:27:10;1.80;99.90
2012;DHT22;1009;51.436;6.972;2024-01-15T06:29:38;1.70;99.90
2012;DHT22;1009;51.436;6.972;2024-01-15T06:32:05;1.70;99.90
2012;DHT22;1009;51.436;6.972;2024-01-15T06:34:31;1.70;99.90
2012;DHT22;1009;51.436;6.972;2024-01-15T06:36:58;1.70;99.90
2012;DHT22;1009;51.436;6.972;2024-01-15T06:39:25;1.70;99.90
2012;DHT22;1009;51.436;6.972;2024-01-15T06:41:53;1.70;99.90
2012;DHT22;1009;51.436;6.972;2024-01-15T06:44:20;1.70;99.90
2012;DHT22;1009;51.436;6.972;2024-01-15T06:46:47;1.70;99.90
2012;DHT22;1009;51.436;6.972;2024-01-15T06:49:14;1.70;99.90
2012;DHT22;1009;51.436;6.972;2024-01-15T06:51:41;1.70;99.90
2012;DHT22;1009;51.436;6.972;2024-01-15T06:54:08;1.70;99.90
2012;DHT22;1009;51.436;6.972;2024-01-15T06:56:35;1.70;99.90
2012;DHT22;1009;51.436;6.972;2024-01-15T06:59:03;1.70;99.90
2012;DHT22;1009;51.436;6.972;2024-01-15T07:01:30;1.70;99.90
2012;DHT22;1009;51.436;6.972;2024-01-15T07:03:56;1.70;99.90
2012;DHT22;1009;51.436;6.972;2024-01-15T07:06:23;1.70;99.90
2012;DHT22;1009;51.436;6.972;2024-01-15T07:08:50;1.70;99.90
2012;DHT22;1009;51.436;6.972;2024-01-15T07:11:16;1.60;99.90
2012;DHT22;1009;51.436;6.972;2024-01-15T07:13:43;1.70;99.90
2012;DHT22;1009;51.436;6.972;2024-01-15T07:16:11;1.60;99.90
2012;DHT22;1009;51.436;6.972;2024-01-15T07:18:38;1.50;99.90
2012;DHT22;1009;51.436;6.972;2024-01-15T07:21:05;1.60;99.90
2012;DHT22;1009;51.436;6.972;2024-01-15T07:23:32;1.60;99.90
2012;DHT22;1009;51.436;6.972;2024-01-15T07:25:58;1.70;99.90
2012;DHT22;1009;51.436;6.972;2024-01-15T07:28:25;1.70;99.90
2012;DHT22;1009;51.436;6.972;2024-01-15T07:30:55;1.70;99.90
2012;DHT22;1009;51.436;6.972;2024-01-15T07:33:23;1.70;99.90
2012;DHT22;1009;51.436;6.972;2024-01-15T07:35:49;1.70;99.90
2012;DHT22;1009;51.436;6.972;2024-01-15T07:38:16;1.70;99.90
2012;DHT22;1009;51.436;6.972;2024-01-15T07:40:43;1.70;99.90
2012;DHT22;1009;51.436;6.972;2024-01-15T07:43:09;1.70;99.90
2012;DHT22;1009;51.436;6.972;2024-01-15T07:45:36;1.60;99.90
2012;DHT22;1009;51.436;6.972;2024-01-15T07:48:04;1.60;99.90
2012;DHT22;1009;51.436;6.972;2024-01-15T07:50:32;1.60;99.90
2012;DHT22;1009;51.436;6.972;2024-01-15T07:52:59;1.70;99.90
2012;DHT22;1009;51.436;6.972;2024-01-15T07:55:25;1.70;99.90
2012;DHT22;1009;51.436;6.972;2024-01-15T07:57:52;1.70;99.90
2012;DHT22;1009;51.436;6.972;2024-01-15T08:00:24;1.60;99.90
2012;DHT22;1009;51.436;6.972;2024-01-15T08:02:51;1.60;99.90
2012;DHT22;1009;51.436;6.972;2024-01-15T08:05:21;1.60;99.90
2012;DHT22;1009;51.436;6.972;2024-01-15T08:07:49;1.60;99.90
2012;DHT22;1009;51.436;6.972;2024-01-15T08:10:16;1.60;99.90
2012;DHT22;1009;51.436;6.972;2024-01-15T08:12:43;1.60;99.90
2012;DHT22;1009;51.436;6.972;2024-01-15T08:15:11;1.60;99.90
2012;DHT22;1009;51.436;6.972;2024-01-15T08:17:39;1.60;99.90
2012;DHT22;1009;51.436;6.972;2024-01-15T08:20:06;1.60;99.90
2012;DHT22;1009;51.436;6.972;2024-01-15T08:22:33;1.50;99.90
2012;DHT22;1009;51.436;6.972;2024-01-15T08:25:01;1.50;99.90
2012;DHT22;1009;51.436;6.972;2024-01-15T08:27:29;1.50;99.90
2012;DHT22;1009;51.436;6.972;2024-01-15T08:29:56;1.40;99.90
2012;DHT22;1009;51.436;6.972;2024-01-15T08:32:22;1.40;99.90
2012;DHT22;1009;51.436;6.972;2024-01-15T08:34:49;1.40;99.90
2012;DHT22;1009;51.436;6.972;2024-01-15T08:37:17;1.40;99.90
2012;DHT22;1009;51.436;6.972;2024-01-15T08:39:44;1.30;99.90
2012;DHT22;1009;51.436;6.972;2024-01-15T08:42:12;1.30;99.90
2012;DHT22;1009;51.436;6.972;2024-01-15T08:44:39;1.40;99.90
2012;DHT22;1009;51.436;6.972;2024-01-15T08:47:07;1.40;99.90
2012;DHT22;1009;51.436;6.972;2024-01-15T08:49:34;1.40;99.90
2012;DHT22;1009;51.436;6.972;2024-01-15T08:52:02;1.40;99.90
2012;DHT22;1009;51.436;6.972;2024-01-15T08:54:28;1.40;99.90
2012;DHT22;1009;51.436;6.972;2024-01-15T08:56:55;1.40;99.90
2012;DHT22;1009;51.436;6.972;2024-01-15T08:59:23;1.40;99.90
2012;DHT22;1009;51.436;6.972;2024-01-15T09:01:51;1.40;99.90
2012;DHT22;1009;51.436;6.972;2024-01-15T09:04:18;1.30;99.90
2012;DHT22;1009;51.436;6.972;2024-01-15T09:06:45;1.40;99.90
2012;DHT22;1009;51.436;6.972;2024-01-15T09:09:12;1.30;99.90
2012;DHT22;1009;51.436;6.972;2024-01-15T09:11:39;1.40;99.90
2012;DHT22;1009;51.436;6.972;2024-01-15T09:14:06;1.40;99.90
2012;DHT22;1009;51.436;6.972;2024-01-15T09:16:35;1.30;99.90
2012;DHT22;1009;51.436;6.972;2024-01-15T09:19:02;1.20;99.90
2012;DHT22;1009;51.436;6.972;2024-01-15T09:21:29;1.30;99.90
2012;DHT22;1009;51.436;6.972;2024-01-15T09:23:56;1.30;99.90
2012;DHT22;1009;51.436;6.972;2024-01-15T09:26:23;1.20;99.90
2012;DHT22;1009;51.436;6.972;2024-01-15T09:28:51;1.20;99.90
2012;DHT22;1009;51.436;6.972;2024-01-15T09:31:18;1.20;99.90
2012;DHT22;1009;51.436;6.972;2024-01-15T09:33:46;1.30;99.90
2012;DHT22;1009;51.436;6.972;2024-01-15T09:36:13;1.30;99.90
2012;DHT22;1009;51.436;6.972;2024-01-15T09:38:40;1.40;99.90
2012;DHT22;1009;51.436;6.972;2024-01-15T09:41:07;1.40;99.90
2012;DHT22;1009;51.436;6.972;2024-01-15T09:43:35;1.40;99.90
2012;DHT22;1009;51.436;6.972;2024-01-15T09:46:03;1.40;99.90
2012;DHT22;1009;51.436;6.972;2024-01-15T09:48:30;1.40;99.90
2012;DHT22;1009;51.436;6.972;2024-01-15T09:51:01;1.40;99.90
2012;DHT22;1009;51.436;6.972;2024-01-15T09:53:28;1.40;99.90
2012;DHT22;1009;51.436;6.972;2024-01-15T09:55:55;1.40;99.90
2012;DHT22;1009;51.436;6.972;2024-01-15T09:58:22;1.30;99.90
2012;DHT22;1009;51.436;6.972;2024-01-15T10:00:50;1.30;99.90
2012;DHT22;1009;51.436;6.972;2024-01-15T10:03:18;1.50;99.90
2012;DHT22;1009;51.436;6.972;2024-01-15T10:05:45;1.50;99.90
2012;DHT22;1009;51.436;6.972;2024-01-15T10:08:14;1.50;99.90
2012;DHT22;1009;51.436;6.972;2024-01-15T10:10:41;1.50;99.90
2012;DHT22;1009;51.436;6.972;2024-01-15T10:13:08;1.50;99.90
2012;DHT22;1009;51.436;6.972;2024-01-15T10:15:35;1.60;99.90
2012;DHT22;1009;51.436;6.972;2024-01-15T10:18:03;1.60;99.90
2012;DHT22;1009;51.436;6.972;2024-01-15T10:20:32;1.70;99.90
2012;DHT22;1009;51.436;6.972;2024-01-15T10:22:59;1.60;99.90
2012;DHT22;1009;51.436;6.972;2024-01-15T10:25:27;1.50;99.90
2012;DHT22;1009;51.436;6.972;2024-01-15T10:28:00;1.60;99.90
2012;DHT22;1009;51.436;6.972;2024-01-15T10:30:27;1.50;99.90
2012;DHT22;1009;51.436;6.972;2024-01-15T10:32:58;1.50;99.90
2012;DHT22;1009;51.436;6.972;2024-01-15T10:35:27;1.60;99.90
2012;DHT22;1009;51.436;6.972;2024-01-15T10:37:54;1.60;99.90
2012;DHT22;1009;51.436;6.972;2024-01-15T10:40:21;1.70;99.90
2012;DHT22;1009;51.436;6.972;2024-01-15T10:42:49;1.50;99.90
2012;DHT22;1009;51.436;6.972;2024-01-15T10:45:17;1.60;99.90
2012;DHT22;1009;51.436;6.972;2024-01-15T10:47:43;1.60;99.90
2012;DHT22;1009;51.436;6.972;2024-01-15T10:50:11;1.60;99.90
2012;DHT22;1009;51.436;6.972;2024-01-15T10:52:39;1.60;99.90
2012;DHT22;1009;51.436;6.972;2024-01-15T10:55:08;1.60;99.90
2012;DHT22;1009;51.436;6.972;2024-01-15T10:57:35;1.60;99.90
2012;DHT22;1009;51.436;6.972;2024-01-15T11:00:04;1.50;99.90
2012;DHT22;1009;51.436;6.972;2024-01-15T11:02:32;1.50;99.90
2012;DHT22;1009;51.436;6.972;2024-01-15T11:04:59;1.50;99.90
2012;DHT22;1009;51.436;6.972;2024-01-15T11:07:26;1.50;99.90
2012;DHT22;1009;51.436;6.972;2024-01-15T11:09:53;1.50;99.90
2012;DHT22;1009;51.436;6.972;2024-01-15T11:12:20;1.50;99.90
2012;DHT22;1009;51.436;6.972;2024-01-15T11:14:48;1.50;99.90
2012;DHT22;1009;51.436;6.972;2024-01-15T11:17:17;1.60;99.90
2012;DHT22;1009;51.436;6.972;2024-01-15T11:19:45;1.50;99.90
2012;DHT22;1009;51.436;6.972;2024-01-15T11:22:47;1.50;99.90
2012;DHT22;1009;51.436;6.972;2024-01-15T11:25:14;1.50;99.90
2012;DHT22;1009;51.436;6.972;2024-01-15T11:27:42;1.60;99.90
2012;DHT22;1009;51.436;6.972;2024-01-15T11:30:09;1.60;99.90
2012;DHT22;1009;51.436;6.972;2024-01-15T11:32:38;1.60;99.90
2012;DHT22;1009;51.436;6.972;2024-01-15T11:35:07;1.60;99.90
2012;DHT22;1009;51.436;6.972;2024-01-15T11:37:58;1.60;99.90
2012;DHT22;1009;51.436;6.972;2024-01-15T11:40:41;1.60;99.90
2012;DHT22;1009;51.436;6.972;2024-01-15T11:43:10;1.60;99.90
2012;DHT22;1009;51.436;6.972;2024-01-15T11:45:39;1.60;99.90
2012;DHT22;1009;51.436;6.972;2024-01-15T11:48:11;1.60;99.90
2012;DHT22;1009;51.436;6.972;2024-01-15T11:50:40;1.60;99.90
2012;DHT22;1009;51.436;6.972;2024-01-15T11:53:21;1.60;99.90
2012;DHT22;1009;51.436;6.972;2024-01-15T11:55:51;1.60;99.90
2012;DHT22;1009;51.436;6.972;2024-01-15T11:58:17;1.60;99.90
2012;DHT22;1009;51.436;6.972;2024-01-15T12:00:47;1.70;99.90
2012;DHT22;1009;51.436;6.972;2024-01-15T12:03:15;1.70;99.90
2012;DHT22;1009;51.436;6.972;2024-01-15T12:05:42;1.60;99.90
2012;DHT22;1009;51.436;6.972;2024-01-15T12:08:09;1.60;99.90
2012;DHT22;1009;51.436;6.972;2024-01-15T12:10:37;1.60;99.90
2012;DHT22;1009;51.436;6.972;2024-01-15T12:13:05;1.60;99.90
2012;DHT22;1009;51.436;6.972;2024-01-15T12:15:33;1.70;99.90
2012;DHT22;1009;51.436;6.972;2024-01-15T12:18:00;1.70;99.90
2012;DHT22;1009;51.436;6.972;2024-01-15T12:20:30;1.70;99.90
2012;DHT22;1009;51.436;6.972;2024-01-15T12:22:57;1.70;99.90
2012;DHT22;1009;51.436;6.972;2024-01-15T12:25:25;1.80;99.90
2012;DHT22;1009;51.436;6.972;2024-01-15T12:27:52;1.80;99.90
2012;DHT22;1009;51.436;6.972;2024-01-15T12:30:20;1.90;99.90
2012;DHT22;1009;51.436;6.972;2024-01-15T12:32:46;2.00;99.90
2012;DHT22;1009;51.436;6.972;2024-01-15T12:35:14;2.00;99.90
2012;DHT22;1009;51.436;6.972;2024-01-15T12:37:43;2.00;99.90
2012;DHT22;1009;51.436;6.972;2024-01-15T12:40:12;2.00;99.90
2012;DHT22;1009;51.436;6.972;2024-01-15T12:42:40;2.00;99.90
2012;DHT22;1009;51.436;6.972;2024-01-15T12:45:08;2.00;99.90
2012;DHT22;1009;51.436;6.972;2024-01-15T12:47:36;2.00;99.90
2012;DHT22;1009;51.436;6.972;2024-01-15T12:50:06;2.00;99.90
2012;DHT22;1009;51.436;6.972;2024-01-15T12:52:33;2.00;99.90
2012;DHT22;1009;51.436;6.972;2024-01-15T12:55:02;2.00;99.90
2012;DHT22;1009;51.436;6.972;2024-01-15T12:57:29;1.80;99.90
2012;DHT22;1009;51.436;6.972;2024-01-15T12:59:55;1.70;99.90
2012;DHT22;1009;51.436;6.972;2024-01-15T13:02:22;1.80;99.90
2012;DHT22;1009;51.436;6.972;2024-01-15T13:04:49;1.80;99.90
2012;DHT22;1009;51.436;6.972;2024-01-15T13:07:16;1.70;99.90
2012;DHT22;1009;51.436;6.972;2024-01-15T13:09:43;1.80;99.90
2012;DHT22;1009;51.436;6.972;2024-01-15T13:12:11;1.70;99.90
2012;DHT22;1009;51.436;6.972;2024-01-15T13:14:38;1.80;99.90
2012;DHT22;1009;51.436;6.972;2024-01-15T13:17:06;1.80;99.90
2012;DHT22;1009;51.436;6.972;2024-01-15T13:19:33;1.80;99.90
2012;DHT22;1009;51.436;6.972;2024-01-15T13:21:59;1.80;99.90
2012;DHT22;1009;51.436;6.972;2024-01-15T13:24:26;1.90;99.90
2012;DHT22;1009;51.436;6.972;2024-01-15T13:26:53;1.90;99.90
2012;DHT22;1009;51.436;6.972;2024-01-15T13:29:21;2.00;99.90
2012;DHT22;1009;51.436;6.972;2024-01-15T13:31:48;1.90;99.90
2012;DHT22;1009;51.436;6.972;2024-01-15T13:34:15;2.00;99.90
2012;DHT22;1009;51.436;6.972;2024-01-15T13:36:42;2.10;99.90
2012;DHT22;1009;51.436;6.972;2024-01-15T13:39:09;2.10;99.90
2012;DHT22;1009;51.436;6.972;2024-01-15T13:41:35;2.00;99.90
2012;DHT22;1009;51.436;6.972;2024-01-15T13:44:02;2.10;99.90
2012;DHT22;1009;51.436;6.972;2024-01-15T13:46:30;2.10;99.90
2012;DHT22;1009;51.436;6.972;2024-01-15T13:48:57;2.10;99.90
2012;DHT22;1009;51.436;6.972;2024-01-15T13:51:24;2.10;99.90
2012;DHT22;1009;51.436;6.972;2024-01-15T13:53:51;2.10;99.90
2012;DHT22;1009;51.436;6.972;2024-01-15T13:56:18;2.10;99.90
2012;DHT22;1009;51.436;6.972;2024-01-15T13:58:46;2.10;99.90
2012;DHT22;1009;51.436;6.972;2024-01-15T14:01:13;2.10;99.90
2012;DHT22;1009;51.436;6.972;2024-01-15T14:03:41;2.00;99.90
2012;DHT22;1009;51.436;6.972;2024-01-15T14:06:08;2.20;99.90
2012;DHT22;1009;51.436;6.972;2024-01-15T14:08:36;2.10;99.90
2012;DHT22;1009;51.436;6.972;2024-01-15T14:11:03;2.00;99.90
2012;DHT22;1009;51.436;6.972;2024-01-15T14:13:31;2.00;99.90
2012;DHT22;1009;51.436;6.972;2024-01-15T14:15:58;1.90;99.90
2012;DHT22;1009;51.436;6.972;2024-01-15T14:18:25;1.90;99.90
2012;DHT22;1009;51.436;6.972;2024-01-15T14:20:53;1.90;99.90
2012;DHT22;1009;51.436;6.972;2024-01-15T14:23:21;1.90;99.90
2012;DHT22;1009;51.436;6.972;2024-01-15T14:25:48;1.90;99.90
2012;DHT22;1009;51.436;6.972;2024-01-15T14:28:15;1.80;99.90
2012;DHT22;1009;51.436;6.972;2024-01-15T14:30:42;1.80;99.90
2012;DHT22;1009;51.436;6.972;2024-01-15T14:33:08;1.80;99.90
2012;DHT22;1009;51.436;6.972;2024-01-15T14:35:36;1.80;99.90
2012;DHT22;1009;51.436;6.972;2024-01-15T14:38:04;1.80;99.90
2012;DHT22;1009;51.436;6.972;2024-01-15T14:40:31;1.80;99.90
2012;DHT22;1009;51.436;6.972;2024-01-15T14:42:58;1.80;99.90
2012;DHT22;1009;51.436;6.972;2024-01-15T14:45:24;1.90;99.90
2012;DHT22;1009;51.436;6.972;2024-01-15T14:47:52;1.90;99.90
2012;DHT22;1009;51.436;6.972;2024-01-15T14:50:19;1.90;99.90
2012;DHT22;1009;51.436;6.972;2024-01-15T14:52:46;2.00;99.90
2012;DHT22;1009;51.436;6.972;2024-01-15T14:55:14;2.00;99.90
2012;DHT22;1009;51.436;6.972;2024-01-15T14:57:40;2.10;99.90
2012;DHT22;1009;51.436;6.972;2024-01-15T15:00:07;2.00;99.90
2012;DHT22;1009;51.436;6.972;2024-01-15T15:02:35;2.00;99.90
2012;DHT22;1009;51.436;6.972;2024-01-15T15:05:02;2.10;99.90
2012;DHT22;1009;51.436;6.972;2024-01-15T15:07:29;2.10;99.90
2012;DHT22;1009;51.436;6.972;2024-01-15T15:09:56;1.90;99.90
2012;DHT22;1009;51.436;6.972;2024-01-15T15:12:24;1.90;99.90
2012;DHT22;1009;51.436;6.972;2024-01-15T15:14:52;1.90;99.90
2012;DHT22;1009;51.436;6.972;2024-01-15T15:17:19;1.90;99.90
2012;DHT22;1009;51.436;6.972;2024-01-15T15:19:46;1.90;99.90
2012;DHT22;1009;51.436;6.972;2024-01-15T15:22:13;1.90;99.90
2012;DHT22;1009;51.436;6.972;2024-01-15T15:24:39;1.80;99.90
2012;DHT22;1009;51.436;6.972;2024-01-15T15:27:06;1.80;99.90
2012;DHT22;1009;51.436;6.972;2024-01-15T15:29:35;1.80;99.90
2012;DHT22;1009;51.436;6.972;2024-01-15T15:32:02;1.80;99.90
2012;DHT22;1009;51.436;6.972;2024-01-15T15:34:29;1.70;99.90
2012;DHT22;1009;51.436;6.972;2024-01-15T15:36:56;1.70;99.90
2012;DHT22;1009;51.436;6.972;2024-01-15T15:39:22;1.70;99.90
2012;DHT22;1009;51.436;6.972;2024-01-15T15:41:50;1.80;99.90
2012;DHT22;1009;51.436;6.972;2024-01-15T15:44:17;1.70;99.90
2012;DHT22;1009;51.436;6.972;2024-01-15T15:46:45;1.70;99.90
2012;DHT22;1009;51.436;6.972;2024-01-15T15:49:12;1.70;99.90
2012;DHT22;1009;51.436;6.972;2024-01-15T15:51:40;1.60;99.90
2012;DHT22;1009;51.436;6.972;2024-01-15T15:54:07;1.60;99.90
2012;DHT22;1009;51.436;6.972;2024-01-15T15:56:34;1.50;99.90
2012;DHT22;1009;51.436;6.972;2024-01-15T15:59:04;1.60;99.90
2012;DHT22;1009;51.436;6.972;2024-01-15T16:01:31;1.60;99.90
2012;DHT22;1009;51.436;6.972;2024-01-15T16:03:59;1.60;99.90
2012;DHT22;1009;51.436;6.972;2024-01-15T16:06:26;1.50;99.90
2012;DHT22;1009;51.436;6.972;2024-01-15T16:08:53;1.40;99.90
2012;DHT22;1009;51.436;6.972;2024-01-15T16:11:20;1.40;99.90
2012;DHT22;1009;51.436;6.972;2024-01-15T16:13:48;1.50;99.90
2012;DHT22;1009;51.436;6.972;2024-01-15T16:16:15;1.40;99.90
2012;DHT22;1009;51.436;6.972;2024-01-15T16:18:42;1.50;99.90